createdAt,value
2019-04-01T00:00:47.032Z,99437.53
2019-04-01T00:03:15.698Z,99440.14
2019-04-01T00:05:45.802Z,99435.39
2019-04-01T00:08:14.375Z,99440.55
2019-04-01T00:10:42.982Z,99428.52
2019-04-01T00:13:11.542Z,99428.02
2019-04-01T00:15:40.227Z,99430.22
2019-04-01T00:18:08.856Z,99426.70
2019-04-01T00:20:37.745Z,99422.85
2019-04-01T00:23:06.645Z,99428.86
2019-04-01T00:25:38.636Z,99423.30
2019-04-01T00:28:07.201Z,99424.67
2019-04-01T00:30:35.874Z,99423.38
2019-04-01T00:33:05.876Z,99436.31
2019-04-01T00:35:34.504Z,99428.98
2019-04-01T00:38:03.184Z,99426.47
2019-04-01T00:40:31.754Z,99428.23
2019-04-01T00:43:05.458Z,99426.09
2019-04-01T00:45:35.682Z,99433.41
2019-04-01T00:48:04.326Z,99434.70
2019-04-01T00:50:32.877Z,99429.11
2019-04-01T00:53:02.459Z,99435.58
2019-04-01T00:55:30.993Z,99427.37
2019-04-01T00:57:59.562Z,99424.74
2019-04-01T01:00:28.240Z,99437.73
2019-04-01T01:02:56.736Z,99436.46
2019-04-01T01:05:25.406Z,99437.64
2019-04-01T01:07:53.971Z,99426.40
2019-04-01T01:10:22.602Z,99424.16
2019-04-01T01:12:51.250Z,99426.70
2019-04-01T01:15:19.929Z,99426.23
2019-04-01T01:17:48.566Z,99419.31
2019-04-01T01:20:17.747Z,99424.91
2019-04-01T01:22:46.286Z,99424.03
2019-04-01T01:25:14.913Z,99413.18
2019-04-01T01:27:46.487Z,99413.11
2019-04-01T01:30:15.228Z,99405.83
2019-04-01T01:32:43.863Z,99416.66
2019-04-01T01:35:12.526Z,99413.19
2019-04-01T01:37:41.156Z,99406.27
2019-04-01T01:40:09.828Z,99411.38
2019-04-01T01:42:38.384Z,99404.45
2019-04-01T01:45:07.940Z,99406.59
2019-04-01T01:47:37.354Z,99410.89
2019-04-01T01:50:07.491Z,99402.71
2019-04-01T01:52:36.047Z,99413.48
2019-04-01T01:55:04.924Z,99412.63
2019-04-01T01:57:33.563Z,99415.22
2019-04-01T02:00:02.169Z,99416.92
2019-04-01T02:02:30.727Z,99409.67
2019-04-01T02:04:59.284Z,99410.59
2019-04-01T02:07:27.848Z,99416.75
2019-04-01T02:09:56.521Z,99415.89
2019-04-01T02:12:25.120Z,99411.16
2019-04-01T02:14:53.791Z,99407.30
2019-04-01T02:17:26.651Z,99411.23
2019-04-01T02:19:55.179Z,99415.19
2019-04-01T02:22:23.678Z,99421.67
2019-04-01T02:24:52.245Z,99415.66
2019-04-01T02:27:23.546Z,99427.77
2019-04-01T02:29:52.197Z,99419.16
2019-04-01T02:32:20.873Z,99416.15
2019-04-01T02:34:49.490Z,99423.92
2019-04-01T02:37:18.357Z,99415.77
2019-04-01T02:39:46.908Z,99420.12
2019-04-01T02:42:15.544Z,99412.38
2019-04-01T02:44:44.082Z,99411.89
2019-04-01T02:47:13.826Z,99412.79
2019-04-01T02:49:42.511Z,99402.92
2019-04-01T02:52:11.173Z,99407.28
2019-04-01T02:54:39.739Z,99409.06
2019-04-01T02:57:08.369Z,99412.93
2019-04-01T02:59:36.861Z,99409.06
2019-04-01T03:02:06.779Z,99412.09
2019-04-01T03:04:35.420Z,99414.70
2019-04-01T03:07:03.994Z,99415.97
2019-04-01T03:09:32.597Z,99412.08
2019-04-01T03:12:01.233Z,99407.79
2019-04-01T03:14:29.967Z,99408.67
2019-04-01T03:16:58.602Z,99412.94
2019-04-01T03:19:27.283Z,99408.67
2019-04-01T03:21:58.896Z,99409.52
2019-04-01T03:24:27.541Z,99415.09
2019-04-01T03:26:56.188Z,99418.56
2019-04-01T03:29:24.871Z,99413.84
2019-04-01T03:31:53.422Z,99420.70
2019-04-01T03:34:22.095Z,99422.44
2019-04-01T03:36:53.435Z,99431.08
2019-04-01T03:39:22.382Z,99433.66
2019-04-01T03:41:51.022Z,99426.78
2019-04-01T03:44:19.806Z,99426.78
2019-04-01T03:46:48.394Z,99427.20
2019-04-01T03:49:17.073Z,99433.23
2019-04-01T03:51:46.647Z,99425.93
2019-04-01T03:54:15.281Z,99431.93
2019-04-01T03:56:43.965Z,99437.09
2019-04-01T03:59:12.590Z,99431.93
2019-04-01T04:01:41.222Z,99433.23
2019-04-01T04:04:09.867Z,99423.77
2019-04-01T04:06:38.498Z,99431.09
2019-04-01T04:09:08.186Z,99436.67
2019-04-01T04:11:36.815Z,99428.49
2019-04-01T04:14:05.449Z,99430.22
2019-04-01T04:16:34.156Z,99426.78
2019-04-01T04:19:02.799Z,99441.40
2019-04-01T04:21:32.745Z,99436.23
2019-04-01T04:24:01.314Z,99432.36
2019-04-01T04:26:29.992Z,99432.32
2019-04-01T04:29:01.271Z,99430.16
2019-04-01T04:31:29.923Z,99433.14
2019-04-01T04:33:58.684Z,99437.87
2019-04-01T04:36:27.403Z,99434.39
2019-04-01T04:38:56.091Z,99439.13
2019-04-01T04:41:24.706Z,99441.29
2019-04-01T04:43:53.349Z,99438.27
2019-04-01T04:46:21.921Z,99443.02
2019-04-01T04:48:50.564Z,99443.43
2019-04-01T04:51:19.196Z,99443.34
2019-04-01T04:53:47.964Z,99445.03
2019-04-01T04:56:21.771Z,99446.23
2019-04-01T04:58:50.930Z,99444.33
2019-04-01T05:01:19.814Z,99449.06
2019-04-01T05:03:48.974Z,99446.45
2019-04-01T05:06:17.769Z,99448.89
2019-04-01T05:08:46.642Z,99447.91
2019-04-01T05:11:15.490Z,99440.94
2019-04-01T05:13:44.397Z,99448.15
2019-04-01T05:16:16.787Z,99445.53
2019-04-01T05:18:48.546Z,99447.52
2019-04-01T05:21:19.129Z,99453.77
2019-04-01T05:23:51.647Z,99451.05
2019-04-01T05:26:25.363Z,99452.28
2019-04-01T05:28:57.806Z,99447.94
2019-04-01T05:31:31.819Z,99445.89
2019-04-01T05:34:02.248Z,99445.15
2019-04-01T05:36:32.406Z,99443.59
2019-04-01T05:39:01.478Z,99449.42
2019-04-01T05:41:31.357Z,99449.83
2019-04-01T05:44:02.283Z,99444.63
2019-04-01T05:46:31.184Z,99449.00
2019-04-01T05:49:00.205Z,99449.00
2019-04-01T05:51:29.802Z,99462.70
2019-04-01T05:53:58.775Z,99458.61
2019-04-01T05:56:27.640Z,99453.84
2019-04-01T05:58:56.273Z,99449.80
2019-04-01T06:01:26.599Z,99451.39
2019-04-01T06:03:55.407Z,99445.42
2019-04-01T06:06:24.719Z,99448.55
2019-04-01T06:08:56.898Z,99450.66
2019-04-01T06:11:28.457Z,99456.72
2019-04-01T06:14:01.481Z,99448.33
2019-04-01T06:16:32.853Z,99448.61
2019-04-01T06:19:08.002Z,99456.44
2019-04-01T06:21:36.886Z,99462.86
2019-04-01T06:24:05.669Z,99462.03
2019-04-01T06:26:34.493Z,99464.05
2019-04-01T06:29:03.484Z,99468.97
2019-04-01T06:31:41.203Z,99466.77
2019-04-01T06:34:16.021Z,99465.06
2019-04-01T06:36:51.136Z,99463.44
2019-04-01T06:39:20.327Z,99463.05
2019-04-01T06:41:49.410Z,99468.45
2019-04-01T06:44:20.144Z,99463.16
2019-04-01T06:46:49.128Z,99466.75
2019-04-01T06:49:20.300Z,99460.48
2019-04-01T06:51:48.324Z,99463.90
2019-04-01T06:54:17.149Z,99461.74
2019-04-01T06:56:47.239Z,99456.02
2019-04-01T06:59:15.926Z,99460.02
2019-04-01T07:01:44.542Z,99458.06
2019-04-01T07:04:13.281Z,99452.89
2019-04-01T07:06:42.474Z,99454.74
2019-04-01T07:09:11.164Z,99452.94
2019-04-01T07:11:41.516Z,99444.16
2019-04-01T07:14:10.256Z,99462.22
2019-04-01T07:16:40.167Z,99456.91
2019-04-01T07:19:08.923Z,99459.20
2019-04-01T07:21:37.692Z,99461.01
2019-04-01T07:24:06.575Z,99461.25
2019-04-01T07:26:35.352Z,99464.45
2019-04-01T07:29:04.024Z,99457.80
2019-04-01T07:31:32.666Z,99454.09
2019-04-01T07:34:01.554Z,99442.88
2019-04-01T07:36:33.489Z,99439.52
2019-04-01T07:39:02.221Z,99438.16
2019-04-01T07:41:30.983Z,99436.47
2019-04-01T07:43:59.625Z,99440.08
2019-04-01T07:46:30.966Z,99443.99
2019-04-01T07:48:59.753Z,99442.70
2019-04-01T07:51:28.445Z,99439.50
2019-04-01T07:53:57.188Z,99439.91
2019-04-01T07:56:25.887Z,99434.42
2019-04-01T07:58:55.052Z,99440.56
2019-04-01T08:01:23.895Z,99431.32
2019-04-01T08:03:52.793Z,99433.49
2019-04-01T08:06:21.533Z,99429.84
2019-04-01T08:08:50.427Z,99429.11
2019-04-01T08:11:19.278Z,99431.16
2019-04-01T08:13:47.990Z,99428.48
2019-04-01T08:16:16.770Z,99426.91
2019-04-01T08:18:45.423Z,99420.62
2019-04-01T08:21:14.257Z,99417.31
2019-04-01T08:23:43.114Z,99418.84
2019-04-01T08:26:11.911Z,99410.09
2019-04-01T08:28:41.905Z,99409.70
2019-04-01T08:31:13.316Z,99402.08
2019-04-01T08:33:41.639Z,99407.90
2019-04-01T08:36:12.022Z,99403.42
2019-04-01T08:38:43.273Z,99402.05
2019-04-01T08:41:15.073Z,99398.48
2019-04-01T08:43:43.851Z,99399.02
2019-04-01T08:46:12.610Z,99400.65
2019-04-01T08:48:41.304Z,99393.23
2019-04-01T08:51:10.095Z,99393.52
2019-04-01T08:53:39.517Z,99386.66
2019-04-01T08:56:08.193Z,99381.61
2019-04-01T08:58:36.903Z,99377.45
2019-04-01T09:01:05.791Z,99370.45
2019-04-01T09:03:34.506Z,99367.18
2019-04-01T09:08:46.730Z,99361.33
2019-04-01T09:11:15.665Z,99363.88
2019-04-01T09:13:47.110Z,99367.55
2019-04-01T09:16:19.284Z,99365.34
2019-04-01T09:18:47.627Z,99358.27
2019-04-01T09:21:16.230Z,99360.88
2019-04-01T09:23:44.860Z,99356.44
2019-04-01T09:26:13.585Z,99352.05
2019-04-01T09:28:42.142Z,99357.64
2019-04-01T09:31:10.779Z,99354.78
2019-04-01T09:33:39.464Z,99356.00
2019-04-01T09:36:08.024Z,99349.05
2019-04-01T09:38:44.498Z,99346.52
2019-04-01T09:41:19.369Z,99338.38
2019-04-01T09:43:48.759Z,99330.54
2019-04-01T09:46:20.698Z,99326.55
2019-04-01T09:48:49.344Z,99328.03
2019-04-01T09:51:19.551Z,99321.31
2019-04-01T09:53:48.373Z,99317.67
2019-04-01T09:56:17.123Z,99318.41
2019-04-01T09:58:45.789Z,99312.86
2019-04-01T10:01:14.414Z,99307.20
2019-04-01T10:03:44.537Z,99298.55
2019-04-01T10:06:13.223Z,99311.31
2019-04-01T10:08:42.963Z,99312.84
2019-04-01T10:11:12.851Z,99311.70
2019-04-01T10:13:42.120Z,99308.27
2019-04-01T10:16:10.772Z,99305.38
2019-04-01T10:18:40.689Z,99301.20
2019-04-01T10:21:09.682Z,99307.41
2019-04-01T10:23:40.921Z,99296.57
2019-04-01T10:26:14.115Z,99296.45
2019-04-01T10:28:50.801Z,99296.69
2019-04-01T10:31:20.032Z,99293.59
2019-04-01T10:33:50.823Z,99292.78
2019-04-01T10:36:21.490Z,99286.82
2019-04-01T10:38:50.420Z,99271.19
2019-04-01T10:41:19.373Z,99278.80
2019-04-01T10:43:48.257Z,99277.77
2019-04-01T10:46:17.178Z,99274.21
2019-04-01T10:48:45.997Z,99264.67
2019-04-01T10:51:15.013Z,99264.90
2019-04-01T10:53:43.978Z,99264.73
2019-04-01T10:56:15.224Z,99262.33
2019-04-01T10:58:44.340Z,99261.92
2019-04-01T11:01:13.327Z,99255.91
2019-04-01T11:03:42.205Z,99245.02
2019-04-01T11:06:11.155Z,99247.05
2019-04-01T11:08:40.268Z,99241.75
2019-04-01T11:11:09.104Z,99238.86
2019-04-01T11:13:38.080Z,99234.20
2019-04-01T11:16:06.942Z,99238.26
2019-04-01T11:18:38.596Z,99235.57
2019-04-01T11:21:07.447Z,99227.28
2019-04-01T11:23:38.491Z,99228.55
2019-04-01T11:26:14.746Z,99217.98
2019-04-01T11:28:43.678Z,99215.80
2019-04-01T11:31:12.640Z,99214.22
2019-04-01T11:33:43.117Z,99207.52
2019-04-01T11:36:12.121Z,99211.84
2019-04-01T11:38:41.010Z,99213.39
2019-04-01T11:41:10.048Z,99210.13
2019-04-01T11:43:38.932Z,99205.13
2019-04-01T11:46:14.910Z,99201.63
2019-04-01T11:48:43.256Z,99201.43
2019-04-01T11:51:13.415Z,99193.84
2019-04-01T11:53:42.079Z,99190.59
2019-04-01T11:56:10.950Z,99180.70
2019-04-01T11:58:40.342Z,99193.33
2019-04-01T12:01:09.019Z,99187.72
2019-04-01T12:03:37.624Z,99186.99
2019-04-01T12:06:06.253Z,99186.30
2019-04-01T12:08:34.808Z,99181.17
2019-04-01T12:11:03.492Z,99174.51
2019-04-01T12:13:32.084Z,99183.17
2019-04-01T12:16:00.713Z,99188.08
2019-04-01T12:18:31.134Z,99175.58
2019-04-01T12:20:59.772Z,99164.80
2019-04-01T12:23:32.739Z,99164.29
2019-04-01T12:26:14.933Z,99163.98
2019-04-01T12:28:36.826Z,99160.83
2019-04-01T12:31:05.559Z,99157.51
2019-04-01T12:33:34.320Z,99147.94
2019-04-01T12:36:02.938Z,99160.80
2019-04-01T12:38:31.618Z,99154.28
2019-04-01T12:41:00.293Z,99153.51
2019-04-01T12:43:28.998Z,99141.91
2019-04-01T12:45:57.641Z,99144.41
2019-04-01T12:48:26.236Z,99141.80
2019-04-01T12:50:54.858Z,99141.55
2019-04-01T12:53:24.913Z,99136.89
2019-04-01T12:55:53.465Z,99141.09
2019-04-01T12:58:25.202Z,99137.77
2019-04-01T13:00:52.517Z,99129.27
2019-04-01T13:03:21.128Z,99128.92
2019-04-01T13:06:26.011Z,99124.30
2019-04-01T13:09:13.966Z,99130.66
2019-04-01T13:12:18.621Z,99127.27
2019-04-01T13:15:06.762Z,99120.19
2019-04-01T13:18:11.481Z,99115.87
2019-04-01T13:20:59.044Z,99110.20
2019-04-01T13:24:04.918Z,99121.67
2019-04-01T13:26:52.925Z,99112.31
2019-04-01T13:29:58.019Z,99127.05
2019-04-01T13:32:45.630Z,99120.12
2019-04-01T13:35:50.049Z,99124.25
2019-04-01T13:38:18.779Z,99120.41
2019-04-01T13:40:47.468Z,99122.48
2019-04-01T13:43:18.849Z,99115.52
2019-04-01T13:45:47.519Z,99107.50
2019-04-01T13:48:16.160Z,99115.53
2019-04-01T13:50:44.731Z,99108.27
2019-04-01T13:53:13.405Z,99113.70
2019-04-01T13:55:42.004Z,99114.08
2019-04-01T13:58:10.957Z,99116.05
2019-04-01T14:00:39.671Z,99110.36
2019-04-01T14:03:11.074Z,99109.33
2019-04-01T14:05:38.555Z,99104.97
2019-04-01T14:08:07.622Z,99112.75
2019-04-01T14:10:36.258Z,99107.14
2019-04-01T14:13:04.892Z,99101.52
2019-04-01T14:15:33.562Z,99097.05
2019-04-01T14:18:02.086Z,99103.30
2019-04-01T14:20:30.702Z,99103.23
2019-04-01T14:22:59.348Z,99098.69
2019-04-01T14:25:28.013Z,99103.14
2019-04-01T14:27:56.635Z,99101.87
2019-04-01T14:30:25.297Z,99104.96
2019-04-01T14:32:53.842Z,99103.61
2019-04-01T14:35:23.781Z,99106.86
2019-04-01T14:37:52.717Z,99100.06
2019-04-01T14:40:21.381Z,99110.88
2019-04-01T14:42:50.010Z,99099.52
2019-04-01T14:45:18.685Z,99106.55
2019-04-01T14:47:57.186Z,99106.03
2019-04-01T14:50:17.684Z,99102.37
2019-04-01T14:52:46.311Z,99099.07
2019-04-01T14:55:14.933Z,99101.18
2019-04-01T14:57:43.489Z,99103.09
2019-04-01T15:00:13.638Z,99104.70
2019-04-01T15:02:42.428Z,99112.42
2019-04-01T15:05:11.273Z,99110.49
2019-04-01T15:07:39.921Z,99106.81
2019-04-01T15:10:08.768Z,99111.59
2019-04-01T15:12:37.444Z,99105.44
2019-04-01T15:15:08.866Z,99114.20
2019-04-01T15:17:37.557Z,99111.73
2019-04-01T15:20:07.688Z,99106.75
2019-04-01T15:22:36.367Z,99109.33
2019-04-01T15:25:07.058Z,99111.97
2019-04-01T15:27:35.604Z,99109.83
2019-04-01T15:30:05.786Z,99115.44
2019-04-01T15:32:34.336Z,99112.42
2019-04-01T15:35:03.076Z,99112.58
2019-04-01T15:37:32.253Z,99107.95
2019-04-01T15:40:00.943Z,99114.49
2019-04-01T15:42:29.501Z,99122.48
2019-04-01T15:44:58.031Z,99123.45
2019-04-01T15:47:29.081Z,99128.42
2019-04-01T15:49:57.725Z,99125.31
2019-04-01T15:52:26.296Z,99126.19
2019-04-01T15:54:57.740Z,99127.91
2019-04-01T15:57:25.176Z,99125.25
2019-04-01T15:59:53.775Z,99130.38
2019-04-01T16:02:22.378Z,99122.95
2019-04-01T16:04:51.009Z,99126.36
2019-04-01T16:07:22.403Z,99132.41
2019-04-01T16:09:50.028Z,99128.55
2019-04-01T16:12:18.617Z,99132.56
2019-04-01T16:14:47.287Z,99138.05
2019-04-01T16:17:15.914Z,99136.24
2019-04-01T16:19:44.582Z,99135.72
2019-04-01T16:22:13.206Z,99145.16
2019-04-01T16:24:41.849Z,99146.81
2019-04-01T16:27:10.521Z,99150.66
2019-04-01T16:29:39.152Z,99151.94
2019-04-01T16:32:07.771Z,99162.73
2019-04-01T16:34:36.370Z,99166.09
2019-04-01T16:37:04.997Z,99170.98
2019-04-01T16:39:33.627Z,99174.91
2019-04-01T16:42:02.186Z,99191.67
2019-04-01T16:44:30.813Z,99191.79
2019-04-01T16:46:59.399Z,99192.14
2019-04-01T16:49:28.040Z,99197.41
2019-04-01T16:52:00.364Z,99200.09
2019-04-01T16:54:29.386Z,99207.47
2019-04-01T16:56:57.958Z,99207.47
2019-04-01T16:59:28.122Z,99205.31
2019-04-01T17:01:57.879Z,99217.07
2019-04-01T17:04:26.632Z,99217.07
2019-04-01T17:06:55.194Z,99224.16
2019-04-01T17:09:23.831Z,99227.22
2019-04-01T17:11:54.288Z,99236.54
2019-04-01T17:14:24.201Z,99236.54
2019-04-01T17:16:53.130Z,99242.47
2019-04-01T17:19:21.776Z,99247.26
2019-04-01T17:21:50.407Z,99257.88
2019-04-01T17:24:19.017Z,99260.92
2019-04-01T17:27:05.567Z,99271.35
2019-04-01T17:29:34.209Z,99279.57
2019-04-01T17:32:02.878Z,99281.83
2019-04-01T17:34:34.535Z,99281.30
2019-04-01T17:37:03.224Z,99294.32
2019-04-01T17:39:31.852Z,99294.78
2019-04-01T17:42:00.452Z,99298.27
2019-04-01T17:44:29.093Z,99299.41
2019-04-01T17:46:57.770Z,99300.67
2019-04-01T17:49:30.242Z,99311.02
2019-04-01T17:52:04.301Z,99316.67
2019-04-01T17:54:32.765Z,99316.83
2019-04-01T17:57:01.438Z,99322.84
2019-04-01T17:59:30.066Z,99325.86
2019-04-01T18:01:58.756Z,99328.00
2019-04-01T18:04:27.320Z,99325.39
2019-04-01T18:06:58.287Z,99329.02
2019-04-01T18:09:26.284Z,99335.11
2019-04-01T18:11:55.211Z,99335.22
2019-04-01T18:14:24.190Z,99344.97
2019-04-01T18:16:52.829Z,99349.09
2019-04-01T18:19:21.461Z,99354.20
2019-04-01T18:21:50.064Z,99349.64
2019-04-01T18:24:18.740Z,99358.53
2019-04-01T18:26:47.371Z,99360.49
2019-04-01T18:29:15.942Z,99365.47
2019-04-01T18:31:44.581Z,99372.80
2019-04-01T18:34:13.218Z,99369.55
2019-04-01T18:36:41.819Z,99383.19
2019-04-01T18:39:11.063Z,99388.09
2019-04-01T18:41:39.740Z,99392.02
2019-04-01T18:44:08.364Z,99397.45
2019-04-01T18:46:37.042Z,99403.06
2019-04-01T18:49:05.676Z,99412.25
2019-04-01T18:51:36.512Z,99420.96
2019-04-01T18:54:05.248Z,99431.17
2019-04-01T18:56:34.079Z,99437.07
2019-04-01T18:59:02.683Z,99439.72
2019-04-01T19:01:31.320Z,99440.84
2019-04-01T19:03:59.811Z,99443.30
2019-04-01T19:06:31.423Z,99445.63
2019-04-01T19:09:09.233Z,99443.86
2019-04-01T19:11:30.400Z,99442.99
2019-04-01T19:14:02.150Z,99450.73
2019-04-01T19:16:30.629Z,99446.98
2019-04-01T19:18:59.293Z,99449.36
2019-04-01T19:21:27.860Z,99444.13
2019-04-01T19:23:56.413Z,99451.48
2019-04-01T19:26:24.982Z,99449.43
2019-04-01T19:28:53.547Z,99449.53
2019-04-01T19:31:22.209Z,99452.61
2019-04-01T19:33:50.895Z,99447.30
2019-04-01T19:36:19.510Z,99449.54
2019-04-01T19:38:48.083Z,99452.69
2019-04-01T19:41:16.682Z,99457.56
2019-04-01T19:43:45.653Z,99447.66
2019-04-01T19:46:14.574Z,99451.80
2019-04-01T19:48:43.200Z,99460.50
2019-04-01T19:51:11.874Z,99454.91
2019-04-01T19:53:40.511Z,99459.64
2019-04-01T19:56:09.134Z,99463.31
2019-04-01T19:58:37.806Z,99470.39
2019-04-01T20:01:06.513Z,99468.62
2019-04-01T20:03:35.151Z,99478.27
2019-04-01T20:06:07.211Z,99473.23
2019-04-01T20:08:34.178Z,99475.53
2019-04-01T20:11:02.855Z,99473.96
2019-04-01T20:13:31.425Z,99479.55
2019-04-01T20:15:59.980Z,99482.76
2019-04-01T20:18:28.560Z,99484.72
2019-04-01T20:20:57.110Z,99478.36
2019-04-01T20:23:25.784Z,99487.09
2019-04-01T20:25:54.415Z,99489.85
2019-04-01T20:28:23.105Z,99499.55
2019-04-01T20:30:56.460Z,99504.89
2019-04-01T20:33:27.226Z,99502.44
2019-04-01T20:35:55.852Z,99503.18
2019-04-01T20:38:24.527Z,99507.95
2019-04-01T20:40:53.282Z,99507.75
2019-04-01T20:43:21.844Z,99509.38
2019-04-01T20:45:50.457Z,99511.00
2019-04-01T20:48:19.086Z,99512.19
2019-04-01T20:50:47.719Z,99513.80
2019-04-01T20:53:16.402Z,99514.02
2019-04-01T20:55:48.436Z,99514.06
2019-04-01T20:58:17.946Z,99516.70
2019-04-01T21:00:46.578Z,99522.69
2019-04-01T21:03:15.067Z,99521.50
2019-04-01T21:05:43.628Z,99521.39
2019-04-01T21:08:12.238Z,99525.09
2019-04-01T21:10:43.927Z,99525.34
2019-04-01T21:13:12.612Z,99528.62
2019-04-01T21:15:41.242Z,99531.20
2019-04-01T21:18:09.810Z,99528.44
2019-04-01T21:20:38.373Z,99523.68
2019-04-01T21:23:08.687Z,99525.03
2019-04-01T21:25:37.245Z,99528.84
2019-04-01T21:28:05.890Z,99529.45
2019-04-01T21:30:34.517Z,99533.63
2019-04-01T21:33:03.080Z,99526.45
2019-04-01T21:35:31.638Z,99531.81
2019-04-01T21:38:00.275Z,99526.12
2019-04-01T21:40:28.763Z,99524.81
2019-04-01T21:42:57.596Z,99524.70
2019-04-01T21:45:26.269Z,99534.41
2019-04-01T21:47:54.790Z,99535.00
2019-04-01T21:50:23.412Z,99544.23
2019-04-01T21:52:52.085Z,99539.47
2019-04-01T21:55:20.729Z,99546.83
2019-04-01T21:57:51.137Z,99549.77
2019-04-01T22:00:27.654Z,99556.67
2019-04-01T22:02:56.245Z,99550.23
2019-04-01T22:05:24.910Z,99548.13
2019-04-01T22:07:53.452Z,99551.72
2019-04-01T22:10:22.111Z,99555.67
2019-04-01T22:12:52.569Z,99560.88
2019-04-01T22:15:23.677Z,99569.72
2019-04-01T22:17:52.235Z,99563.67
2019-04-01T22:20:20.866Z,99565.36
2019-04-01T22:22:49.515Z,99566.36
2019-04-01T22:25:18.142Z,99569.86
2019-04-01T22:27:46.745Z,99576.39
2019-04-01T22:30:17.307Z,99581.64
2019-04-01T22:32:46.367Z,99589.05
2019-04-01T22:35:15.031Z,99584.99
2019-04-01T22:37:43.636Z,99590.30
2019-04-01T22:40:12.672Z,99594.47
2019-04-01T22:42:41.315Z,99602.17
2019-04-01T22:45:10.019Z,99594.25
2019-04-01T22:47:38.646Z,99606.22
2019-04-01T22:50:07.829Z,99603.11
2019-04-01T22:52:36.314Z,99607.58
2019-04-01T22:55:05.643Z,99612.58
2019-04-01T22:57:34.248Z,99614.69
2019-04-01T23:00:02.960Z,99614.77
2019-04-01T23:02:31.444Z,99613.37
2019-04-01T23:04:59.977Z,99612.58
2019-04-01T23:07:28.610Z,99625.05
2019-04-01T23:09:58.099Z,99613.06
2019-04-01T23:12:26.968Z,99620.92
2019-04-01T23:14:55.610Z,99616.76
2019-04-01T23:17:24.239Z,99619.52
2019-04-01T23:19:52.796Z,99620.25
2019-04-01T23:22:21.438Z,99621.55
2019-04-01T23:24:50.009Z,99627.87
2019-04-01T23:27:18.631Z,99633.77
2019-04-01T23:29:47.158Z,99634.40
2019-04-01T23:32:16.320Z,99623.33
2019-04-01T23:34:45.419Z,99622.11
2019-04-01T23:37:14.048Z,99626.02
2019-04-01T23:39:42.676Z,99621.01
2019-04-01T23:42:11.283Z,99623.07
2019-04-01T23:44:39.835Z,99630.59
2019-04-01T23:47:08.441Z,99628.57
2019-04-01T23:49:37.143Z,99636.69
2019-04-01T23:52:05.928Z,99637.88
2019-04-01T23:54:34.508Z,99630.64
2019-04-01T23:57:03.137Z,99631.59
2019-04-01T23:59:31.738Z,99631.59
